createdAt,value
2023-05-23T00:00:52.048Z,16.71
2023-05-23T00:01:55.120Z,16.69
2023-05-23T00:02:57.568Z,16.70
2023-05-23T00:03:59.877Z,16.62
2023-05-23T00:05:03.556Z,16.57
2023-05-23T00:06:06.688Z,16.65
2023-05-23T00:07:09.070Z,16.62
2023-05-23T00:08:11.313Z,16.64
2023-05-23T00:09:14.686Z,16.62
2023-05-23T00:10:16.958Z,16.61
2023-05-23T00:11:20.383Z,16.56
2023-05-23T00:12:22.634Z,16.65
2023-05-23T00:13:24.928Z,16.68
2023-05-23T00:14:27.267Z,16.71
2023-05-23T00:15:29.528Z,16.78
2023-05-23T00:16:32.682Z,16.77
2023-05-23T00:17:37.011Z,16.80
2023-05-23T00:18:43.029Z,16.75
2023-05-23T00:19:47.999Z,16.74
2023-05-23T00:20:51.852Z,16.76
2023-05-23T00:21:58.486Z,16.87
2023-05-23T00:23:01.013Z,16.80
2023-05-23T00:24:04.572Z,16.68
2023-05-23T00:25:07.362Z,16.66
2023-05-23T00:26:10.671Z,16.62
2023-05-23T00:27:16.626Z,16.62
2023-05-23T00:28:19.188Z,16.66
2023-05-23T00:29:21.579Z,16.61
2023-05-23T00:30:24.428Z,16.65
2023-05-23T00:31:26.802Z,16.55
2023-05-23T00:32:29.120Z,16.64
2023-05-23T00:33:33.185Z,16.57
2023-05-23T00:34:36.588Z,16.52
2023-05-23T00:35:38.993Z,16.44
2023-05-23T00:36:43.574Z,16.51
2023-05-23T00:37:46.094Z,16.59
2023-05-23T00:38:49.397Z,16.51
2023-05-23T00:39:51.703Z,16.46
2023-05-23T00:40:53.989Z,16.47
2023-05-23T00:41:57.011Z,16.51
2023-05-23T00:42:59.300Z,16.59
2023-05-23T00:44:02.879Z,16.57
2023-05-23T00:45:06.408Z,16.65
2023-05-23T00:46:09.870Z,16.72
2023-05-23T00:47:13.786Z,16.74
2023-05-23T00:48:16.287Z,16.71
2023-05-23T00:49:21.756Z,16.69
2023-05-23T00:50:24.078Z,16.68
2023-05-23T00:51:27.020Z,16.72
2023-05-23T00:52:29.364Z,16.67
2023-05-23T00:53:31.923Z,16.77
2023-05-23T00:54:36.365Z,16.83
2023-05-23T00:55:39.733Z,16.84
2023-05-23T00:56:43.872Z,16.78
2023-05-23T00:57:46.187Z,16.81
2023-05-23T00:58:49.088Z,16.73
2023-05-23T00:59:51.930Z,16.85
2023-05-23T01:00:55.678Z,16.81
2023-05-23T01:01:58.908Z,16.85
2023-05-23T01:03:01.720Z,16.87
2023-05-23T01:04:04.765Z,16.95
2023-05-23T01:05:07.859Z,16.95
2023-05-23T01:06:10.395Z,16.91
2023-05-23T01:07:13.825Z,16.91
2023-05-23T01:08:16.258Z,16.97
2023-05-23T01:09:20.835Z,16.95
2023-05-23T01:10:28.129Z,16.95
2023-05-23T01:11:38.213Z,16.90
2023-05-23T01:12:56.226Z,16.96
2023-05-23T01:14:05.921Z,16.96
2023-05-23T01:15:11.116Z,16.82
2023-05-23T01:16:48.851Z,16.86
2023-05-23T01:17:58.433Z,16.97
2023-05-23T01:19:40.868Z,16.86
2023-05-23T01:21:09.568Z,16.93
2023-05-23T01:22:22.442Z,16.88
2023-05-23T01:24:03.870Z,16.98
2023-05-23T01:25:18.678Z,16.97
2023-05-23T01:26:50.328Z,16.96
2023-05-23T01:28:00.757Z,16.96
2023-05-23T01:29:19.347Z,16.94
2023-05-23T01:30:23.239Z,16.94
2023-05-23T01:31:29.752Z,16.95
2023-05-23T01:32:32.616Z,17.01
2023-05-23T01:33:35.240Z,17.02
2023-05-23T01:34:38.370Z,17.07
2023-05-23T01:35:43.684Z,17.08
2023-05-23T01:36:46.633Z,17.02
2023-05-23T01:37:48.997Z,17.06
2023-05-23T01:38:51.306Z,16.97
2023-05-23T01:39:53.551Z,16.84
2023-05-23T01:40:56.976Z,16.75
2023-05-23T01:41:59.443Z,16.78
2023-05-23T01:43:02.568Z,16.83
2023-05-23T01:44:05.349Z,16.88
2023-05-23T01:45:08.429Z,16.88
2023-05-23T01:46:11.601Z,16.76
2023-05-23T01:47:15.235Z,16.78
2023-05-23T01:48:18.370Z,16.83
2023-05-23T01:49:22.823Z,16.77
2023-05-23T01:50:26.749Z,16.84
2023-05-23T01:51:30.530Z,16.81
2023-05-23T01:52:33.935Z,16.88
2023-05-23T01:53:37.333Z,16.78
2023-05-23T01:54:42.382Z,16.74
2023-05-23T01:55:46.652Z,16.85
2023-05-23T01:56:50.912Z,16.88
2023-05-23T01:57:57.545Z,16.83
2023-05-23T01:59:00.385Z,16.80
2023-05-23T02:02:10.212Z,16.70
2023-05-23T02:03:12.988Z,16.70
2023-05-23T02:04:16.169Z,16.73
2023-05-23T02:05:18.477Z,16.75
2023-05-23T02:06:21.226Z,16.70
2023-05-23T02:07:23.593Z,16.72
2023-05-23T02:08:26.008Z,16.75
2023-05-23T02:09:28.239Z,16.74
2023-05-23T02:10:30.527Z,16.77
2023-05-23T02:11:36.014Z,16.84
2023-05-23T02:12:38.295Z,16.83
2023-05-23T02:13:41.166Z,16.84
2023-05-23T02:14:43.473Z,16.83
2023-05-23T02:15:46.303Z,16.83
2023-05-23T02:16:48.602Z,16.81
2023-05-23T02:17:51.406Z,16.84
2023-05-23T02:18:56.248Z,16.72
2023-05-23T02:19:58.528Z,16.67
2023-05-23T02:21:00.825Z,16.55
2023-05-23T02:22:03.603Z,16.56
2023-05-23T02:23:06.648Z,16.67
2023-05-23T02:24:08.947Z,16.57
2023-05-23T02:25:11.268Z,16.62
2023-05-23T02:26:15.056Z,16.68
2023-05-23T02:27:19.835Z,16.67
2023-05-23T02:28:22.158Z,16.55
2023-05-23T02:29:25.108Z,16.61
2023-05-23T02:30:27.311Z,16.54
2023-05-23T02:31:30.741Z,16.62
2023-05-23T02:32:33.136Z,16.64
2023-05-23T02:33:36.448Z,16.59
2023-05-23T02:34:38.713Z,16.60
2023-05-23T02:35:41.255Z,16.57
2023-05-23T02:36:45.747Z,16.40
2023-05-23T02:37:47.989Z,16.37
2023-05-23T02:38:51.326Z,16.34
2023-05-23T02:39:53.876Z,16.33
2023-05-23T02:40:57.688Z,16.36
2023-05-23T02:42:00.466Z,16.43
2023-05-23T02:43:02.890Z,16.47
2023-05-23T02:44:06.470Z,16.50
2023-05-23T02:45:09.176Z,16.40
2023-05-23T02:46:13.621Z,16.48
2023-05-23T02:47:15.942Z,16.38
2023-05-23T02:48:18.237Z,16.38
2023-05-23T02:49:20.774Z,16.41
2023-05-23T02:50:23.130Z,16.42
2023-05-23T02:51:26.225Z,16.35
2023-05-23T02:52:28.487Z,16.36
2023-05-23T02:53:30.768Z,16.34
2023-05-23T02:54:33.033Z,16.42
2023-05-23T02:55:35.348Z,16.40
2023-05-23T02:56:37.623Z,16.43
2023-05-23T02:57:39.856Z,16.40
2023-05-23T02:58:42.400Z,16.42
2023-05-23T02:59:44.646Z,16.45
2023-05-23T03:00:47.107Z,16.37
2023-05-23T03:01:49.419Z,16.34
2023-05-23T03:02:51.800Z,16.35
2023-05-23T03:03:54.281Z,16.38
2023-05-23T03:04:57.314Z,16.38
2023-05-23T03:05:59.940Z,16.30
2023-05-23T03:07:05.412Z,16.36
2023-05-23T03:08:09.487Z,16.39
2023-05-23T03:09:11.816Z,16.45
2023-05-23T03:10:14.051Z,16.38
2023-05-23T03:11:16.353Z,16.34
2023-05-23T03:12:19.747Z,16.28
2023-05-23T03:13:22.024Z,16.25
2023-05-23T03:14:24.380Z,16.25
2023-05-23T03:15:26.740Z,16.14
2023-05-23T03:16:29.171Z,16.18
2023-05-23T03:17:31.488Z,16.17
2023-05-23T03:18:33.722Z,16.16
2023-05-23T03:19:37.755Z,16.17
2023-05-23T03:20:40.005Z,16.17
2023-05-23T03:21:42.513Z,16.21
2023-05-23T03:22:45.657Z,16.15
2023-05-23T03:23:47.978Z,16.13
2023-05-23T03:24:50.553Z,16.14
2023-05-23T03:25:52.736Z,16.13
2023-05-23T03:26:56.434Z,16.15
2023-05-23T03:27:59.601Z,16.12
2023-05-23T03:29:02.043Z,16.16
2023-05-23T03:30:04.803Z,16.15
2023-05-23T03:31:07.094Z,16.19
2023-05-23T03:32:09.486Z,16.24
2023-05-23T03:33:12.176Z,16.22
2023-05-23T03:34:14.428Z,16.29
2023-05-23T03:35:16.811Z,16.12
2023-05-23T03:36:19.183Z,16.06
2023-05-23T03:37:21.458Z,16.21
2023-05-23T03:38:23.796Z,16.23
2023-05-23T03:39:26.058Z,16.17
2023-05-23T03:40:28.300Z,16.20
2023-05-23T03:41:30.569Z,16.25
2023-05-23T03:42:33.109Z,16.19
2023-05-23T03:43:35.296Z,16.28
2023-05-23T03:44:37.537Z,16.17
2023-05-23T03:45:41.847Z,16.16
2023-05-23T03:46:48.536Z,16.22
2023-05-23T03:47:52.386Z,16.19
2023-05-23T03:48:54.944Z,16.27
2023-05-23T03:49:58.185Z,16.30
2023-05-23T03:51:01.416Z,16.40
2023-05-23T03:52:04.353Z,16.46
2023-05-23T03:53:07.156Z,16.46
2023-05-23T03:54:10.165Z,16.40
2023-05-23T03:55:12.465Z,16.26
2023-05-23T03:56:14.862Z,16.32
2023-05-23T03:57:17.257Z,16.32
2023-05-23T03:58:20.827Z,16.26
2023-05-23T03:59:26.636Z,16.22
2023-05-23T04:00:29.227Z,16.27
2023-05-23T04:01:34.149Z,16.32
2023-05-23T04:02:36.680Z,16.40
2023-05-23T04:03:39.083Z,16.33
2023-05-23T04:04:41.588Z,16.41
2023-05-23T04:05:44.080Z,16.40
2023-05-23T04:06:47.364Z,16.45
2023-05-23T04:07:51.635Z,16.51
2023-05-23T04:08:54.580Z,16.60
2023-05-23T04:09:56.820Z,16.65
2023-05-23T04:10:59.445Z,16.67
2023-05-23T04:12:01.989Z,16.62
2023-05-23T04:13:04.793Z,16.70
2023-05-23T04:14:07.935Z,16.74
2023-05-23T04:15:11.297Z,16.75
2023-05-23T04:16:25.756Z,16.69
2023-05-23T04:17:29.430Z,16.61
2023-05-23T04:18:38.964Z,16.66
2023-05-23T04:19:42.865Z,16.68
2023-05-23T04:20:46.281Z,16.73
2023-05-23T04:21:48.667Z,16.74
2023-05-23T04:22:52.286Z,16.72
2023-05-23T04:23:54.630Z,16.67
2023-05-23T04:24:56.833Z,16.75
2023-05-23T04:25:59.269Z,16.76
2023-05-23T04:27:07.844Z,16.74
2023-05-23T04:28:12.052Z,16.59
2023-05-23T04:29:15.116Z,16.60
2023-05-23T04:30:18.289Z,16.58
2023-05-23T04:31:22.306Z,16.61
2023-05-23T04:32:25.405Z,16.66
2023-05-23T04:33:30.459Z,16.61
2023-05-23T04:34:36.103Z,16.56
2023-05-23T04:35:40.904Z,16.55
2023-05-23T04:36:44.675Z,16.60
2023-05-23T04:37:47.611Z,16.59
2023-05-23T04:38:50.193Z,16.63
2023-05-23T04:39:53.037Z,16.63
2023-05-23T04:41:10.087Z,16.55
2023-05-23T04:42:24.695Z,16.62
2023-05-23T04:43:59.616Z,16.59
2023-05-23T04:45:13.114Z,16.64
2023-05-23T04:46:31.083Z,16.60
2023-05-23T04:47:54.921Z,16.61
2023-05-23T04:49:10.070Z,16.65
2023-05-23T04:50:12.466Z,16.70
2023-05-23T04:51:14.951Z,16.67
2023-05-23T04:52:33.276Z,16.70
2023-05-23T04:53:36.980Z,16.67
2023-05-23T04:54:44.543Z,16.66
2023-05-23T04:55:47.352Z,16.70
2023-05-23T04:56:52.664Z,16.75
2023-05-23T04:57:56.428Z,16.71
2023-05-23T04:58:58.814Z,16.77
2023-05-23T05:00:05.450Z,16.76
2023-05-23T05:01:09.719Z,16.81
2023-05-23T05:02:12.117Z,16.92
2023-05-23T05:03:14.696Z,16.93
2023-05-23T05:04:20.193Z,16.97
2023-05-23T05:05:22.609Z,16.98
2023-05-23T05:06:25.003Z,17.04
2023-05-23T05:07:29.341Z,16.84
2023-05-23T05:08:32.733Z,16.95
2023-05-23T05:09:35.013Z,17.02
2023-05-23T05:10:40.434Z,17.05
2023-05-23T05:11:43.299Z,17.11
2023-05-23T05:12:47.053Z,17.26
2023-05-23T05:13:50.100Z,17.39
2023-05-23T05:14:52.573Z,17.45
2023-05-23T05:15:55.331Z,17.50
2023-05-23T05:16:59.290Z,17.47
2023-05-23T05:18:08.580Z,17.50
2023-05-23T05:19:12.180Z,17.51
2023-05-23T05:20:15.271Z,17.42
2023-05-23T05:21:18.362Z,17.43
2023-05-23T05:22:20.613Z,17.38
2023-05-23T05:23:25.484Z,17.50
2023-05-23T05:24:27.850Z,17.53
2023-05-23T05:25:32.416Z,17.65
2023-05-23T05:26:35.273Z,17.32
2023-05-23T05:27:38.045Z,18.10
2023-05-23T05:28:42.199Z,18.77
2023-05-23T05:29:44.509Z,19.42
2023-05-23T05:30:48.295Z,19.94
2023-05-23T05:31:52.014Z,20.75
2023-05-23T05:32:54.344Z,21.34
2023-05-23T05:33:56.669Z,21.67
2023-05-23T05:34:59.913Z,21.90
2023-05-23T05:36:04.673Z,21.76
2023-05-23T05:37:06.983Z,21.87
2023-05-23T05:38:11.045Z,21.95
2023-05-23T05:39:15.092Z,21.87
2023-05-23T05:40:17.996Z,22.01
2023-05-23T05:41:20.454Z,22.02
2023-05-23T05:42:25.734Z,22.07
2023-05-23T05:43:28.476Z,22.26
2023-05-23T05:44:31.241Z,22.55
2023-05-23T05:45:33.719Z,22.72
2023-05-23T05:46:36.079Z,23.04
2023-05-23T05:47:40.336Z,22.20
2023-05-23T05:48:42.676Z,21.41
2023-05-23T05:49:47.753Z,21.36
2023-05-23T05:50:50.020Z,21.36
2023-05-23T05:51:53.031Z,21.78
2023-05-23T05:52:55.337Z,22.42
2023-05-23T05:53:58.120Z,22.44
2023-05-23T05:55:00.403Z,22.46
2023-05-23T05:56:02.963Z,22.54
2023-05-23T05:57:06.638Z,22.59
2023-05-23T05:58:09.030Z,22.86
2023-05-23T05:59:29.037Z,22.15
2023-05-23T06:00:32.819Z,20.96
2023-05-23T06:01:35.072Z,19.90
2023-05-23T06:02:37.366Z,19.60
2023-05-23T06:03:39.796Z,19.52
2023-05-23T06:04:42.181Z,19.53
2023-05-23T06:05:44.578Z,19.49
2023-05-23T06:06:47.286Z,19.50
2023-05-23T06:07:50.350Z,19.46
2023-05-23T06:08:53.534Z,19.35
2023-05-23T06:09:55.809Z,19.30
2023-05-23T06:10:58.069Z,19.11
2023-05-23T06:12:02.870Z,18.85
2023-05-23T06:13:05.318Z,18.57
2023-05-23T06:14:08.828Z,18.37
2023-05-23T06:15:14.578Z,18.30
2023-05-23T06:16:16.972Z,18.21
2023-05-23T06:17:20.849Z,18.19
2023-05-23T06:18:23.119Z,18.12
2023-05-23T06:19:26.704Z,18.18
2023-05-23T06:20:30.329Z,18.19
2023-05-23T06:21:34.962Z,18.17
2023-05-23T06:22:38.986Z,18.13
2023-05-23T06:23:41.831Z,18.15
2023-05-23T06:24:44.679Z,18.10
2023-05-23T06:25:46.894Z,18.03
2023-05-23T06:26:49.101Z,17.93
2023-05-23T06:27:51.457Z,17.91
2023-05-23T06:28:53.740Z,17.70
2023-05-23T06:29:55.965Z,17.55
2023-05-23T06:30:58.235Z,17.49
2023-05-23T06:32:00.804Z,17.53
2023-05-23T06:33:03.154Z,17.60
2023-05-23T06:34:05.453Z,17.44
2023-05-23T06:35:07.972Z,17.37
2023-05-23T06:36:10.707Z,17.23
2023-05-23T06:37:12.953Z,17.32
2023-05-23T06:38:17.542Z,17.15
2023-05-23T06:39:20.046Z,17.23
2023-05-23T06:40:22.312Z,17.18
2023-05-23T06:41:25.959Z,17.15
2023-05-23T06:42:29.457Z,17.12
2023-05-23T06:43:48.352Z,17.08
2023-05-23T06:44:58.047Z,17.06
2023-05-23T06:46:01.578Z,17.02
2023-05-23T06:47:04.543Z,17.08
2023-05-23T06:48:06.736Z,17.05
2023-05-23T06:49:15.048Z,17.15
2023-05-23T06:50:20.036Z,17.14
2023-05-23T06:51:23.926Z,17.12
2023-05-23T06:52:26.319Z,17.12
2023-05-23T06:53:28.582Z,17.20
2023-05-23T06:54:30.983Z,17.14
2023-05-23T06:55:33.942Z,17.20
2023-05-23T06:56:36.588Z,17.25
2023-05-23T06:57:39.924Z,17.24
2023-05-23T06:58:43.673Z,17.29
2023-05-23T06:59:47.715Z,17.37
2023-05-23T07:00:51.231Z,17.45
2023-05-23T07:01:58.829Z,17.54
2023-05-23T07:03:03.888Z,17.69
2023-05-23T07:04:06.747Z,17.74
2023-05-23T07:05:09.923Z,17.94
2023-05-23T07:06:22.786Z,17.94
2023-05-23T07:07:26.554Z,17.98
2023-05-23T07:08:28.951Z,18.05
2023-05-23T07:09:34.675Z,18.02
2023-05-23T07:10:45.121Z,18.07
2023-05-23T07:11:59.603Z,18.17
2023-05-23T07:13:02.554Z,18.18
2023-05-23T07:14:07.766Z,18.30
2023-05-23T07:15:13.592Z,18.32
2023-05-23T07:16:25.492Z,18.25
2023-05-23T07:17:38.410Z,18.05
2023-05-23T07:18:41.121Z,18.15
2023-05-23T07:19:43.928Z,18.08
2023-05-23T07:20:47.668Z,18.22
2023-05-23T07:21:52.935Z,18.26
2023-05-23T07:22:55.363Z,18.21
2023-05-23T07:26:39.882Z,18.05
2023-05-23T07:27:42.414Z,17.82
2023-05-23T07:28:45.067Z,17.82
2023-05-23T07:29:47.545Z,17.83
2023-05-23T07:30:50.566Z,17.82
2023-05-23T07:31:53.689Z,17.93
2023-05-23T07:32:57.692Z,18.02
2023-05-23T07:34:00.339Z,17.88
2023-05-23T07:35:13.330Z,17.83
2023-05-23T07:36:16.490Z,17.73
2023-05-23T07:37:18.851Z,17.73
2023-05-23T07:38:21.936Z,17.71
2023-05-23T07:39:24.401Z,17.68
2023-05-23T07:40:27.885Z,17.74
2023-05-23T07:41:30.336Z,17.76
2023-05-23T07:42:32.693Z,17.86
2023-05-23T07:43:34.897Z,17.87
2023-05-23T07:44:38.278Z,17.91
2023-05-23T07:45:41.081Z,17.99
2023-05-23T07:46:43.804Z,17.93
2023-05-23T07:47:46.179Z,17.91
2023-05-23T07:48:50.871Z,17.98
2023-05-23T07:49:53.884Z,18.03
2023-05-23T07:50:56.777Z,18.10
2023-05-23T07:51:59.024Z,18.12
2023-05-23T07:53:01.460Z,18.19
2023-05-23T07:54:06.100Z,18.25
2023-05-23T07:55:09.093Z,18.32
2023-05-23T07:56:11.531Z,18.32
2023-05-23T07:57:16.712Z,18.42
2023-05-23T07:58:19.663Z,18.45
2023-05-23T07:59:23.712Z,18.45
2023-05-23T08:00:27.430Z,18.73
2023-05-23T08:01:36.555Z,19.10
2023-05-23T08:02:40.870Z,19.44
2023-05-23T08:03:45.726Z,19.62
2023-05-23T08:04:54.814Z,19.47
2023-05-23T08:05:57.370Z,19.60
2023-05-23T08:07:05.434Z,19.62
2023-05-23T08:08:25.038Z,19.33
2023-05-23T08:09:27.401Z,19.36
2023-05-23T08:10:32.443Z,19.55
2023-05-23T08:11:42.322Z,19.38
2023-05-23T08:12:44.604Z,19.47
2023-05-23T08:13:50.579Z,19.55
2023-05-23T08:15:11.491Z,19.42
2023-05-23T08:16:21.671Z,19.37
2023-05-23T08:17:25.105Z,19.81
2023-05-23T08:18:28.564Z,20.20
2023-05-23T08:19:30.899Z,20.44
2023-05-23T08:20:33.138Z,20.33
2023-05-23T08:21:38.394Z,20.10
2023-05-23T08:22:40.668Z,19.92
2023-05-23T08:23:45.090Z,19.81
2023-05-23T08:24:47.658Z,19.95
2023-05-23T08:25:49.972Z,19.92
2023-05-23T08:26:52.646Z,19.53
2023-05-23T08:27:55.127Z,19.29
2023-05-23T08:29:18.555Z,19.23
2023-05-23T08:30:23.085Z,18.97
2023-05-23T08:31:27.444Z,18.93
2023-05-23T08:32:29.944Z,18.92
2023-05-23T08:33:32.473Z,19.03
2023-05-23T08:34:35.228Z,19.11
2023-05-23T08:35:37.774Z,19.08
2023-05-23T08:36:44.234Z,18.91
2023-05-23T08:37:52.091Z,18.87
2023-05-23T08:38:54.753Z,18.79
2023-05-23T08:40:02.419Z,18.77
2023-05-23T08:41:21.291Z,18.91
2023-05-23T08:42:26.054Z,18.76
2023-05-23T08:43:29.363Z,18.63
2023-05-23T08:44:31.693Z,18.60
2023-05-23T08:45:37.305Z,18.37
2023-05-23T08:46:44.457Z,18.45
2023-05-23T08:47:51.253Z,18.61
2023-05-23T08:49:00.349Z,18.72
2023-05-23T08:50:06.671Z,18.76
2023-05-23T08:51:13.596Z,18.70
2023-05-23T08:52:22.048Z,18.78
2023-05-23T08:53:27.302Z,18.89
2023-05-23T08:54:36.815Z,19.07
2023-05-23T08:55:39.821Z,18.87
2023-05-23T08:56:43.682Z,18.79
2023-05-23T08:57:46.503Z,18.73
2023-05-23T08:59:12.922Z,18.69
2023-05-23T09:00:16.504Z,18.80
2023-05-23T09:01:20.497Z,18.72
2023-05-23T09:02:26.861Z,18.78
2023-05-23T09:03:42.342Z,18.87
2023-05-23T09:04:53.516Z,18.69
2023-05-23T09:05:59.112Z,18.64
2023-05-23T09:07:02.726Z,18.65
2023-05-23T09:08:06.041Z,18.56
2023-05-23T09:09:09.374Z,18.53
2023-05-23T09:10:13.020Z,18.56
2023-05-23T09:11:15.609Z,18.48
2023-05-23T09:12:22.303Z,18.58
2023-05-23T09:13:25.920Z,18.51
2023-05-23T09:14:31.918Z,18.44
2023-05-23T09:15:38.618Z,18.55
2023-05-23T09:16:41.678Z,18.44
2023-05-23T09:17:48.215Z,18.55
2023-05-23T09:18:50.617Z,18.57
2023-05-23T09:19:55.775Z,18.44
2023-05-23T09:21:13.550Z,18.63
2023-05-23T09:22:26.791Z,18.71
2023-05-23T09:23:39.340Z,18.70
2023-05-23T09:24:41.918Z,18.74
2023-05-23T09:25:49.106Z,18.68
2023-05-23T09:26:51.962Z,18.94
2023-05-23T09:27:56.527Z,19.17
2023-05-23T09:29:00.880Z,19.30
2023-05-23T09:30:11.236Z,19.63
2023-05-23T09:31:14.446Z,19.75
2023-05-23T09:32:18.744Z,19.63
2023-05-23T09:33:21.263Z,19.93
2023-05-23T09:34:23.546Z,20.06
2023-05-23T09:35:28.710Z,20.12
2023-05-23T09:36:33.677Z,20.13
2023-05-23T09:37:43.170Z,20.14
2023-05-23T09:38:47.978Z,20.06
2023-05-23T09:39:51.023Z,19.77
2023-05-23T09:40:56.160Z,19.61
2023-05-23T09:42:01.026Z,19.63
2023-05-23T09:43:05.379Z,19.74
2023-05-23T09:44:10.873Z,19.61
2023-05-23T09:45:13.997Z,19.59
2023-05-23T09:46:16.303Z,19.69
2023-05-23T09:47:18.984Z,19.64
2023-05-23T09:48:29.323Z,19.60
2023-05-23T09:49:31.671Z,19.64
2023-05-23T09:50:34.242Z,19.50
2023-05-23T09:51:37.763Z,19.24
2023-05-23T09:52:40.276Z,19.16
2023-05-23T09:53:43.072Z,19.20
2023-05-23T09:54:46.586Z,19.16
2023-05-23T09:55:51.616Z,19.24
2023-05-23T09:56:57.614Z,19.42
2023-05-23T09:58:01.399Z,19.28
2023-05-23T09:59:07.402Z,19.42
2023-05-23T10:00:11.438Z,19.53
2023-05-23T10:01:17.451Z,19.47
2023-05-23T10:02:53.912Z,19.67
2023-05-23T10:03:59.960Z,19.61
2023-05-23T10:05:09.086Z,19.49
2023-05-23T10:06:16.169Z,19.58
2023-05-23T10:07:22.374Z,19.61
2023-05-23T10:08:34.035Z,19.88
2023-05-23T10:09:38.980Z,20.03
2023-05-23T10:11:13.256Z,20.20
2023-05-23T10:12:34.223Z,20.06
2023-05-23T10:13:37.019Z,20.08
2023-05-23T10:14:45.283Z,19.97
2023-05-23T10:15:50.023Z,19.90
2023-05-23T10:17:08.307Z,20.04
2023-05-23T10:18:18.037Z,20.11
2023-05-23T10:19:26.827Z,20.13
2023-05-23T10:20:34.264Z,20.18
2023-05-23T10:21:46.481Z,20.24
2023-05-23T10:22:50.163Z,20.25
2023-05-23T10:23:53.086Z,20.00
2023-05-23T10:24:55.623Z,20.03
2023-05-23T10:25:57.877Z,20.03
2023-05-23T10:27:00.450Z,19.75
2023-05-23T10:28:04.562Z,19.69
2023-05-23T10:29:07.980Z,19.61
2023-05-23T10:30:10.993Z,19.82
2023-05-23T10:31:13.313Z,19.98
2023-05-23T10:32:16.229Z,20.26
2023-05-23T10:33:19.730Z,20.42
2023-05-23T10:34:47.473Z,20.12
2023-05-23T10:36:10.224Z,20.37
2023-05-23T10:37:38.703Z,20.18
2023-05-23T10:38:58.640Z,20.49
2023-05-23T10:40:13.455Z,20.76
2023-05-23T10:41:18.336Z,20.81
2023-05-23T10:42:49.299Z,20.89
2023-05-23T10:43:54.526Z,21.06
2023-05-23T10:45:14.963Z,21.08
2023-05-23T10:46:20.776Z,21.39
2023-05-23T10:47:28.777Z,21.73
2023-05-23T10:48:31.294Z,21.85
2023-05-23T10:49:43.329Z,21.95
2023-05-23T10:50:46.728Z,22.04
2023-05-23T10:51:53.423Z,21.89
2023-05-23T10:52:55.711Z,21.91
2023-05-23T10:53:58.123Z,21.86
2023-05-23T10:55:00.442Z,21.23
2023-05-23T10:56:06.042Z,20.96
2023-05-23T10:57:11.166Z,20.98
2023-05-23T10:58:20.415Z,20.55
2023-05-23T10:59:22.982Z,20.61
2023-05-23T11:00:25.308Z,20.82
2023-05-23T11:01:27.653Z,20.49
2023-05-23T11:02:30.392Z,20.52
2023-05-23T11:03:49.298Z,20.76
2023-05-23T11:05:23.708Z,20.83
2023-05-23T11:06:43.329Z,20.87
2023-05-23T11:07:45.693Z,20.81
2023-05-23T11:08:49.118Z,20.87
2023-05-23T11:10:11.234Z,21.02
2023-05-23T11:11:13.547Z,21.20
2023-05-23T11:12:15.904Z,21.26
2023-05-23T11:13:20.337Z,20.97
2023-05-23T11:14:34.365Z,20.94
2023-05-23T11:15:42.800Z,20.98
2023-05-23T11:16:46.967Z,20.86
2023-05-23T11:17:52.101Z,20.89
2023-05-23T11:19:19.322Z,20.98
2023-05-23T11:20:27.084Z,21.03
2023-05-23T11:21:29.725Z,20.99
2023-05-23T11:22:33.260Z,21.05
2023-05-23T11:23:42.102Z,21.18
2023-05-23T11:24:54.967Z,21.28
2023-05-23T11:25:57.173Z,21.42
2023-05-23T11:27:00.704Z,21.47
2023-05-23T11:28:05.357Z,21.62
2023-05-23T11:29:10.653Z,21.44
2023-05-23T11:30:15.725Z,21.54
2023-05-23T11:31:18.139Z,21.22
2023-05-23T11:32:20.482Z,21.44
2023-05-23T11:33:22.858Z,21.50
2023-05-23T11:34:27.943Z,21.69
2023-05-23T11:35:30.861Z,21.71
2023-05-23T11:36:33.807Z,21.93
2023-05-23T11:37:37.807Z,21.99
2023-05-23T11:38:40.275Z,22.17
2023-05-23T11:39:42.569Z,22.30
2023-05-23T11:40:46.790Z,22.28
2023-05-23T11:42:15.401Z,22.61
2023-05-23T11:43:18.144Z,22.21
2023-05-23T11:44:20.714Z,22.33
2023-05-23T11:45:23.902Z,22.41
2023-05-23T11:46:26.422Z,22.22
2023-05-23T11:47:28.946Z,22.59
2023-05-23T11:48:31.471Z,23.09
2023-05-23T11:49:38.458Z,23.09
2023-05-23T11:50:44.887Z,23.16
2023-05-23T11:51:47.182Z,23.18
2023-05-23T11:52:51.862Z,22.92
2023-05-23T11:53:54.461Z,23.20
2023-05-23T11:54:58.974Z,23.03
2023-05-23T11:56:04.860Z,22.78
2023-05-23T11:57:07.112Z,22.61
2023-05-23T11:58:09.423Z,22.05
2023-05-23T11:59:11.737Z,21.65
2023-05-23T12:00:14.626Z,21.37
2023-05-23T12:01:16.944Z,21.06
2023-05-23T12:02:20.059Z,21.03
2023-05-23T12:03:22.653Z,20.61
2023-05-23T12:04:28.018Z,20.38
2023-05-23T12:05:30.379Z,20.60
2023-05-23T12:06:33.955Z,20.75
2023-05-23T12:07:36.880Z,20.48
2023-05-23T12:08:39.237Z,20.53
2023-05-23T12:09:43.422Z,20.51
2023-05-23T12:10:50.022Z,20.42
2023-05-23T12:11:52.413Z,20.29
2023-05-23T12:12:55.352Z,20.26
2023-05-23T12:13:57.971Z,20.13
2023-05-23T12:15:01.074Z,20.14
2023-05-23T12:16:04.766Z,19.99
2023-05-23T12:17:07.652Z,19.85
2023-05-23T12:18:09.999Z,19.68
2023-05-23T12:19:12.611Z,19.77
2023-05-23T12:20:15.219Z,19.77
2023-05-23T12:21:17.571Z,19.61
2023-05-23T12:22:26.090Z,19.63
2023-05-23T12:23:30.878Z,19.54
2023-05-23T12:24:34.721Z,19.61
2023-05-23T12:25:42.976Z,19.70
2023-05-23T12:26:58.562Z,19.65
2023-05-23T12:28:01.461Z,19.66
2023-05-23T12:29:03.900Z,19.64
2023-05-23T12:30:11.241Z,19.67
2023-05-23T12:31:17.937Z,19.72
2023-05-23T12:32:20.457Z,19.67
2023-05-23T12:33:23.242Z,19.61
2023-05-23T12:34:25.735Z,19.51
2023-05-23T12:35:28.233Z,19.60
2023-05-23T12:36:34.351Z,19.62
2023-05-23T12:37:43.996Z,19.75
2023-05-23T12:38:46.325Z,19.85
2023-05-23T12:39:48.765Z,19.96
2023-05-23T12:41:20.210Z,19.88
2023-05-23T12:42:22.547Z,19.90
2023-05-23T12:43:24.801Z,19.98
2023-05-23T12:44:32.828Z,20.16
2023-05-23T12:45:39.462Z,20.32
2023-05-23T12:46:41.971Z,20.39
2023-05-23T12:47:44.412Z,20.43
2023-05-23T12:48:47.445Z,20.57
2023-05-23T12:49:49.863Z,20.76
2023-05-23T12:50:52.166Z,20.80
2023-05-23T12:51:54.659Z,20.96
2023-05-23T12:52:57.152Z,21.16
2023-05-23T12:53:59.923Z,21.29
2023-05-23T12:55:02.469Z,21.53
2023-05-23T12:56:05.440Z,21.64
2023-05-23T12:57:07.679Z,21.83
2023-05-23T12:58:09.910Z,22.14
2023-05-23T12:59:12.224Z,22.46
2023-05-23T13:00:14.956Z,23.11
2023-05-23T13:01:17.310Z,23.60
2023-05-23T13:02:19.807Z,23.33
2023-05-23T13:03:22.175Z,23.20
2023-05-23T13:04:24.580Z,23.41
2023-05-23T13:05:27.561Z,23.42
2023-05-23T13:06:29.890Z,22.77
2023-05-23T13:07:32.143Z,22.49
2023-05-23T13:08:34.450Z,22.54
2023-05-23T13:09:36.699Z,22.34
2023-05-23T13:10:39.299Z,22.57
2023-05-23T13:11:41.635Z,22.37
2023-05-23T13:12:44.639Z,22.39
2023-05-23T13:13:46.922Z,22.30
2023-05-23T13:14:49.978Z,22.05
2023-05-23T13:15:52.432Z,22.02
2023-05-23T13:16:54.778Z,22.00
2023-05-23T13:17:57.976Z,21.86
2023-05-23T13:19:00.644Z,21.71
2023-05-23T13:20:05.071Z,21.64
2023-05-23T13:21:07.749Z,21.62
2023-05-23T13:22:13.137Z,21.63
2023-05-23T13:23:15.598Z,21.53
2023-05-23T13:24:17.922Z,21.67
2023-05-23T13:25:20.377Z,21.78
2023-05-23T13:26:22.981Z,21.92
2023-05-23T13:27:25.353Z,21.99
2023-05-23T13:28:27.622Z,22.02
2023-05-23T13:29:29.778Z,22.01
2023-05-23T13:30:32.466Z,21.83
2023-05-23T13:31:34.723Z,21.80
2023-05-23T13:32:36.958Z,21.88
2023-05-23T13:33:39.320Z,21.89
2023-05-23T13:34:42.148Z,21.88
2023-05-23T13:35:44.678Z,21.72
2023-05-23T13:36:47.099Z,22.01
2023-05-23T13:37:49.352Z,21.90
2023-05-23T13:38:51.745Z,22.06
2023-05-23T13:39:53.983Z,22.13
2023-05-23T13:40:56.185Z,22.16
2023-05-23T13:42:00.726Z,22.21
2023-05-23T13:43:03.196Z,22.40
2023-05-23T13:44:05.444Z,22.63
2023-05-23T13:45:08.096Z,22.61
2023-05-23T13:46:10.639Z,22.71
2023-05-23T13:47:14.656Z,23.01
2023-05-23T13:48:16.884Z,23.05
2023-05-23T13:49:19.114Z,23.19
2023-05-23T13:50:21.701Z,23.08
2023-05-23T13:51:24.022Z,23.04
2023-05-23T13:52:26.528Z,22.76
2023-05-23T13:53:28.755Z,22.78
2023-05-23T13:54:30.960Z,22.54
2023-05-23T13:55:33.159Z,22.37
2023-05-23T13:56:36.496Z,22.03
2023-05-23T13:57:38.756Z,21.73
2023-05-23T13:58:42.893Z,21.37
2023-05-23T13:59:45.399Z,21.26
2023-05-23T14:00:47.665Z,21.14